Time;durP1;ratioP1;P1;durP2;ratioP2;P2;SDS_P1;SDS_P2;PMS_P1;PMS_P2;Temp;Humidity;BMP_temperature;BMP_pressure;BME280_temperature;BME280_humidity;BME280_pressure;Samples;Min_cycle;Max_cycle;Signal;HPM_P1;HPM_P2
2023/08/03 00:01:52;;;;;;;3.60;1.60;;;18.80;99.90;;;;;;5038163;28;20193;-81
2023/08/03 00:04:17;;;;;;;4.53;1.50;;;18.90;99.90;;;;;;5041223;28;20189;-81
2023/08/03 00:06:44;;;;;;;7.83;1.87;;;18.90;99.90;;;;;;5032125;28;20500;-80
2023/08/03 00:09:10;;;;;;;4.30;1.30;;;19.00;99.90;;;;;;5052916;28;20265;-81
2023/08/03 00:11:35;;;;;;;5.13;1.60;;;19.00;99.90;;;;;;5044440;28;20489;-82
2023/08/03 00:14:01;;;;;;;7.33;1.57;;;19.10;99.90;;;;;;5032389;28;20435;-81
2023/08/03 00:16:27;;;;;;;5.90;1.47;;;19.00;99.90;;;;;;5034168;28;20185;-84
2023/08/03 00:18:52;;;;;;;5.60;1.70;;;19.00;99.90;;;;;;5033001;28;20185;-82
2023/08/03 00:21:18;;;;;;;6.10;1.60;;;19.00;99.90;;;;;;5042148;28;20250;-83
2023/08/03 00:23:43;;;;;;;12.17;2.23;;;19.00;99.90;;;;;;5051533;28;20198;-82
2023/08/03 00:26:09;;;;;;;4.60;1.30;;;19.00;99.90;;;;;;5045394;28;20192;-82
2023/08/03 00:28:34;;;;;;;9.33;1.70;;;19.00;99.90;;;;;;5052489;28;20199;-84
2023/08/03 00:31:00;;;;;;;5.10;1.23;;;19.00;99.90;;;;;;5037217;28;20189;-82
2023/08/03 00:33:26;;;;;;;5.80;1.83;;;18.90;99.90;;;;;;5052759;28;20194;-85
2023/08/03 00:35:52;;;;;;;4.10;1.63;;;18.90;99.90;;;;;;5051361;28;20181;-84
2023/08/03 00:38:17;;;;;;;8.80;1.97;;;18.90;99.90;;;;;;5037899;28;20446;-83
2023/08/03 00:40:43;;;;;;;6.27;1.37;;;18.80;99.90;;;;;;5049994;28;20290;-82
2023/08/03 00:43:09;;;;;;;6.27;1.63;;;18.70;99.90;;;;;;5047743;28;20414;-82
2023/08/03 00:45:34;;;;;;;6.57;1.20;;;18.70;99.90;;;;;;5040552;28;20633;-81
2023/08/03 00:48:00;;;;;;;5.13;1.30;;;18.70;99.90;;;;;;5030834;28;20207;-82
2023/08/03 00:50:25;;;;;;;9.90;1.53;;;19.30;99.90;;;;;;5052077;28;20181;-82
2023/08/03 00:52:51;;;;;;;6.53;1.50;;;18.80;99.90;;;;;;5029493;28;20219;-82
2023/08/03 00:55:17;;;;;;;9.73;1.47;;;18.70;99.90;;;;;;5039485;28;20208;-81
2023/08/03 00:57:42;;;;;;;9.60;1.53;;;18.70;99.90;;;;;;5037659;28;20192;-85
2023/08/03 01:00:09;;;;;;;7.43;1.20;;;18.60;99.90;;;;;;5049495;28;20574;-81
2023/08/03 01:02:35;;;;;;;4.43;1.53;;;18.60;99.90;;;;;;5049064;28;20295;-82
2023/08/03 01:05:00;;;;;;;5.07;1.50;;;18.50;99.90;;;;;;5043511;28;21128;-83
2023/08/03 01:07:26;;;;;;;5.57;1.90;;;18.50;99.90;;;;;;5029629;28;20666;-81
2023/08/03 01:09:51;;;;;;;3.77;1.20;;;18.20;99.90;;;;;;5045363;28;20215;-83
2023/08/03 01:12:17;;;;;;;5.83;1.10;;;18.40;99.90;;;;;;5045784;28;20208;-81
2023/08/03 01:14:44;;;;;;;5.80;1.40;;;18.50;99.90;;;;;;5049574;28;20652;-80
2023/08/03 01:17:10;;;;;;;3.23;1.10;;;18.50;99.90;;;;;;5066471;28;20474;-81
2023/08/03 01:19:36;;;;;;;6.40;1.07;;;18.40;99.90;;;;;;5070045;28;21108;-80
2023/08/03 01:22:02;;;;;;;7.83;1.57;;;18.60;99.90;;;;;;5065420;28;21150;-82
2023/08/03 01:24:29;;;;;;;3.90;1.20;;;18.70;99.90;;;;;;5036267;28;20181;-83
2023/08/03 01:26:58;;;;;;;6.10;1.20;;;18.60;99.90;;;;;;5047432;28;20439;-81
2023/08/03 01:29:23;;;;;;;4.03;1.50;;;18.50;99.90;;;;;;5037679;28;20610;-82
2023/08/03 01:31:54;;;;;;;5.33;1.17;;;18.50;99.90;;;;;;5038914;28;20463;-82
2023/08/03 01:34:19;;;;;;;2.37;1.13;;;18.40;99.90;;;;;;5046548;28;20173;-82
2023/08/03 01:36:45;;;;;;;6.17;1.37;;;18.50;99.90;;;;;;5047148;28;20501;-84
2023/08/03 01:39:10;;;;;;;7.10;1.40;;;18.60;99.90;;;;;;5044629;28;20246;-81
2023/08/03 01:41:38;;;;;;;3.77;1.63;;;18.60;99.90;;;;;;5035358;28;20299;-82
2023/08/03 01:44:26;;;;;;;3.93;1.10;;;20.70;99.90;;;;;;5030356;28;20173;-81
2023/08/03 01:46:53;;;;;;;2.17;1.10;;;18.60;99.90;;;;;;5034022;28;20927;-81
2023/08/03 01:49:19;;;;;;;5.73;1.57;;;18.60;99.90;;;;;;5028194;28;21022;-81
2023/08/03 01:51:45;;;;;;;6.10;1.10;;;18.50;99.90;;;;;;5032064;28;21266;-82
2023/08/03 01:54:11;;;;;;;12.13;1.60;;;18.40;99.90;;;;;;5049606;28;20522;-81
2023/08/03 01:56:37;;;;;;;4.10;1.30;;;18.40;99.90;;;;;;5050253;28;20207;-85
2023/08/03 01:59:03;;;;;;;8.40;1.30;;;18.30;99.90;;;;;;5048106;28;20526;-82
2023/08/03 02:01:29;;;;;;;11.90;1.50;;;18.30;99.90;;;;;;5038661;28;20496;-82
2023/08/03 02:03:55;;;;;;;9.10;1.57;;;18.20;99.90;;;;;;5029910;28;20193;-81
2023/08/03 02:06:20;;;;;;;2.60;0.80;;;18.20;99.90;;;;;;5049009;28;20294;-82
2023/08/03 02:08:46;;;;;;;8.30;2.10;;;18.10;99.90;;;;;;5048055;28;20435;-80
2023/08/03 02:11:11;;;;;;;4.10;1.67;;;18.20;99.90;;;;;;5045769;28;23930;-81
2023/08/03 02:13:37;;;;;;;5.80;1.10;;;18.20;99.90;;;;;;5032896;28;20241;-80
2023/08/03 02:16:10;;;;;;;5.03;1.37;;;18.30;99.90;;;;;;5037442;28;20185;-80
2023/08/03 02:18:36;;;;;;;3.53;1.23;;;18.30;99.90;;;;;;5044911;28;20185;-83
2023/08/03 02:21:03;;;;;;;6.03;1.37;;;18.30;99.90;;;;;;5048565;28;20433;-82
2023/08/03 02:23:28;;;;;;;4.13;1.40;;;18.20;99.90;;;;;;5046819;28;20427;-83
2023/08/03 02:25:54;;;;;;;6.23;1.20;;;18.30;99.90;;;;;;5032621;28;21007;-83
2023/08/03 02:28:19;;;;;;;4.63;1.13;;;18.20;99.90;;;;;;5032889;28;20194;-84
2023/08/03 02:30:45;;;;;;;6.07;1.50;;;18.30;99.90;;;;;;5035217;28;20168;-82
2023/08/03 02:33:10;;;;;;;6.60;1.77;;;18.20;99.90;;;;;;5031321;28;20208;-83
2023/08/03 02:35:39;;;;;;;3.57;0.97;;;18.20;99.90;;;;;;5046805;28;20198;-84
2023/08/03 02:38:05;;;;;;;3.00;1.17;;;18.30;99.90;;;;;;5036133;28;20195;-85
2023/08/03 02:40:31;;;;;;;3.90;1.30;;;18.40;99.90;;;;;;5048764;28;20473;-82
2023/08/03 02:42:56;;;;;;;4.53;0.90;;;18.40;99.90;;;;;;5047946;28;20458;-82
2023/08/03 02:45:22;;;;;;;3.13;0.60;;;18.30;99.90;;;;;;5037453;28;20865;-81
2023/08/03 02:47:47;;;;;;;2.00;0.90;;;18.30;99.90;;;;;;5050344;28;20183;-81
2023/08/03 02:50:13;;;;;;;5.40;1.30;;;18.30;99.90;;;;;;5034360;28;20268;-81
2023/08/03 02:52:38;;;;;;;3.87;1.60;;;18.20;99.90;;;;;;5036586;28;20284;-81
2023/08/03 02:55:04;;;;;;;2.83;0.90;;;18.10;99.90;;;;;;5036182;28;20199;-82
2023/08/03 02:57:30;;;;;;;7.17;0.83;;;17.90;99.90;;;;;;5048629;28;20242;-81
2023/08/03 02:59:55;;;;;;;5.17;1.10;;;17.90;99.90;;;;;;5051934;28;21248;-83
2023/08/03 03:02:21;;;;;;;4.80;1.13;;;17.80;99.90;;;;;;5035074;28;20286;-82
2023/08/03 03:04:46;;;;;;;4.30;1.03;;;17.60;99.90;;;;;;5034782;28;20207;-83
2023/08/03 03:07:12;;;;;;;2.20;1.27;;;17.40;99.90;;;;;;5047838;28;20276;-81
2023/08/03 03:09:37;;;;;;;2.67;1.07;;;17.20;99.90;;;;;;5054214;28;20181;-84
2023/08/03 03:12:03;;;;;;;11.43;1.70;;;17.00;99.90;;;;;;5036482;28;20201;-84
2023/08/03 03:14:28;;;;;;;1.63;0.70;;;16.90;99.90;;;;;;5046754;28;21339;-85
2023/08/03 03:16:54;;;;;;;3.60;1.10;;;16.80;99.90;;;;;;5033211;28;20905;-81
2023/08/03 03:19:19;;;;;;;9.23;2.00;;;16.60;99.90;;;;;;5036138;28;20180;-83
2023/08/03 03:21:45;;;;;;;1.60;0.87;;;16.50;99.90;;;;;;5038287;28;20201;-84
2023/08/03 03:24:11;;;;;;;3.23;0.90;;;16.40;99.90;;;;;;5054304;28;20188;-84
2023/08/03 03:26:36;;;;;;;4.93;0.93;;;16.40;99.90;;;;;;5050544;28;20188;-82
2023/08/03 03:29:02;;;;;;;2.30;0.90;;;16.40;99.90;;;;;;5052975;28;20176;-83
2023/08/03 03:31:27;;;;;;;1.57;0.87;;;16.40;99.90;;;;;;5031407;28;20208;-84
2023/08/03 03:33:53;;;;;;;9.80;1.43;;;16.40;99.90;;;;;;5032316;28;20190;-82
2023/08/03 03:36:18;;;;;;;5.63;1.03;;;16.50;99.90;;;;;;5050351;28;20700;-82
2023/08/03 03:38:44;;;;;;;4.10;1.17;;;16.50;99.90;;;;;;5054517;28;20185;-81
2023/08/03 03:41:09;;;;;;;5.17;1.10;;;16.50;99.90;;;;;;5031318;28;20288;-80
2023/08/03 03:43:34;;;;;;;6.07;1.20;;;16.40;99.90;;;;;;5040099;28;20172;-86
2023/08/03 03:46:02;;;;;;;3.00;1.20;;;16.40;99.90;;;;;;5052018;28;20212;-81
2023/08/03 03:48:27;;;;;;;4.03;1.00;;;16.40;99.90;;;;;;5044620;28;20797;-85
2023/08/03 03:50:53;;;;;;;6.00;1.43;;;16.30;99.90;;;;;;5059961;28;20431;-82
2023/08/03 03:53:18;;;;;;;4.63;0.80;;;16.30;99.90;;;;;;5053979;28;20447;-84
2023/08/03 03:55:44;;;;;;;2.77;1.17;;;16.40;99.90;;;;;;5029057;28;20176;-83
2023/08/03 03:58:10;;;;;;;2.63;0.97;;;16.40;99.90;;;;;;5049218;28;20189;-85
2023/08/03 04:00:40;;;;;;;3.57;0.80;;;16.50;99.90;;;;;;5049774;28;20189;-82
2023/08/03 04:03:07;;;;;;;3.90;1.23;;;16.60;99.90;;;;;;5037853;28;20540;-84
2023/08/03 04:05:33;;;;;;;4.83;1.07;;;16.80;99.90;;;;;;5030104;28;20477;-83
2023/08/03 04:07:59;;;;;;;7.30;1.33;;;16.80;99.90;;;;;;5048948;28;20435;-81
2023/08/03 04:10:24;;;;;;;5.53;1.17;;;16.90;99.90;;;;;;5051828;28;20449;-81
2023/08/03 04:12:50;;;;;;;6.13;1.00;;;16.90;99.90;;;;;;5052007;28;20696;-84
2023/08/03 04:15:16;;;;;;;5.83;1.23;;;17.00;99.90;;;;;;5060793;28;20187;-86
2023/08/03 04:17:45;;;;;;;6.97;1.20;;;17.10;99.90;;;;;;5049090;28;20177;-83
2023/08/03 04:20:11;;;;;;;4.10;0.80;;;17.10;99.90;;;;;;5037010;28;20438;-83
2023/08/03 04:22:37;;;;;;;4.83;1.00;;;17.20;99.90;;;;;;5028227;28;20470;-83
2023/08/03 04:25:03;;;;;;;2.07;0.70;;;17.40;99.90;;;;;;5050190;28;21180;-82
2023/08/03 04:27:29;;;;;;;2.40;0.60;;;17.30;99.90;;;;;;5029880;28;20445;-82
2023/08/03 04:29:55;;;;;;;6.10;1.73;;;17.30;99.90;;;;;;5046917;28;20439;-83
2023/08/03 04:32:21;;;;;;;3.20;1.27;;;17.30;99.90;;;;;;5036963;28;20201;-83
2023/08/03 04:34:46;;;;;;;5.00;1.83;;;17.40;99.90;;;;;;5050449;28;20458;-83
2023/08/03 04:37:12;;;;;;;3.13;1.13;;;17.50;99.90;;;;;;5051412;28;20188;-82
2023/08/03 04:39:37;;;;;;;4.43;0.80;;;17.50;99.90;;;;;;5037322;28;20185;-82
2023/08/03 04:42:03;;;;;;;5.73;1.00;;;17.50;99.90;;;;;;5048707;28;20260;-82
2023/08/03 04:44:29;;;;;;;6.63;1.20;;;17.60;99.90;;;;;;5048688;28;20185;-81
2023/08/03 04:46:54;;;;;;;6.00;1.33;;;17.60;99.90;;;;;;5050430;28;20188;-82
2023/08/03 04:49:20;;;;;;;8.23;0.97;;;17.60;99.90;;;;;;5036762;28;20183;-82
2023/08/03 04:51:45;;;;;;;5.90;0.90;;;17.60;99.90;;;;;;5048373;28;20208;-82
2023/08/03 04:54:13;;;;;;;21.90;2.40;;;17.70;99.90;;;;;;5056259;28;20197;-84
2023/08/03 04:56:38;;;;;;;4.47;1.07;;;17.70;99.90;;;;;;5036715;28;20191;-81
2023/08/03 04:59:04;;;;;;;6.53;1.40;;;17.90;99.90;;;;;;5049485;28;20427;-82
2023/08/03 05:01:30;;;;;;;6.13;2.60;;;17.90;99.90;;;;;;5032533;28;20212;-80
2023/08/03 05:03:56;;;;;;;2.90;1.17;;;18.30;99.90;;;;;;5045243;28;20568;-83
2023/08/03 05:06:21;;;;;;;3.50;1.10;;;19.30;99.90;;;;;;5031008;28;20177;-85
2023/08/03 05:08:47;;;;;;;3.73;1.27;;;;;;;;;;5044333;28;20186;-82
2023/08/03 05:11:13;;;;;;;6.20;1.10;;;19.80;99.90;;;;;;5032013;28;20247;-83
2023/08/03 05:13:38;;;;;;;5.10;1.20;;;19.70;99.90;;;;;;5047721;28;20439;-82
2023/08/03 05:16:04;;;;;;;4.20;1.10;;;20.60;99.90;;;;;;5032153;28;20185;-81
2023/08/03 05:18:29;;;;;;;6.10;1.60;;;21.40;99.90;;;;;;5036149;28;20176;-82
2023/08/03 05:20:55;;;;;;;2.20;0.87;;;20.80;99.90;;;;;;5050435;28;20178;-82
2023/08/03 05:23:20;;;;;;;6.20;1.63;;;20.10;99.90;;;;;;5047454;28;20212;-84
2023/08/03 05:25:48;;;;;;;4.53;0.90;;;19.50;99.90;;;;;;5036320;28;20177;-85
2023/08/03 05:28:13;;;;;;;8.80;0.70;;;20.40;99.90;;;;;;5024017;28;20671;-84
2023/08/03 05:30:39;;;;;;;3.27;1.73;;;20.40;99.90;;;;;;5046500;28;20521;-85
2023/08/03 05:33:05;;;;;;;3.33;1.07;;;19.50;99.90;;;;;;5026090;28;20232;-80
2023/08/03 05:35:30;;;;;;;2.60;1.33;;;19.00;99.90;;;;;;5044507;28;20180;-83
2023/08/03 05:37:56;;;;;;;5.60;1.10;;;18.70;99.90;;;;;;5046218;28;20189;-81
2023/08/03 05:40:21;;;;;;;4.50;1.03;;;18.20;99.90;;;;;;5043571;28;20264;-80
2023/08/03 05:42:47;;;;;;;2.70;1.07;;;;;;;;;;5043416;28;20235;-80
2023/08/03 05:45:35;;;;;;;3.00;0.90;;;18.00;99.90;;;;;;5029695;28;20181;-82
2023/08/03 05:48:01;;;;;;;2.20;0.70;;;17.90;99.90;;;;;;5035654;28;20524;-81
2023/08/03 05:50:27;;;;;;;5.30;1.03;;;18.00;99.90;;;;;;5043182;28;20431;-81
2023/08/03 05:52:53;;;;;;;2.07;0.70;;;18.00;99.90;;;;;;5043683;28;20466;-82
2023/08/03 05:55:18;;;;;;;2.70;1.07;;;18.00;99.90;;;;;;5038291;28;20539;-81
2023/08/03 05:57:44;;;;;;;2.30;1.27;;;17.90;99.90;;;;;;5035315;28;20212;-82
2023/08/03 06:00:20;;;;;;;1.27;0.60;;;18.00;99.90;;;;;;5024233;28;20173;-80
2023/08/03 06:02:46;;;;;;;4.17;1.20;;;18.30;99.90;;;;;;5008737;28;1032063;-81
2023/08/03 06:05:39;;;;;;;2.20;0.80;;;18.40;99.90;;;;;;5045932;28;20438;-81
2023/08/03 06:08:10;;;;;;;2.23;1.00;;;18.40;99.90;;;;;;5032988;28;20534;-83
2023/08/03 06:10:36;;;;;;;1.40;0.63;;;18.30;99.90;;;;;;5047201;28;20454;-83
2023/08/03 06:13:02;;;;;;;1.43;0.60;;;18.00;99.90;;;;;;5031639;28;20458;-81
2023/08/03 06:15:29;;;;;;;0.90;0.60;;;17.90;99.90;;;;;;5046916;28;20184;-82
2023/08/03 06:18:03;;;;;;;3.63;0.60;;;18.10;99.90;;;;;;5046008;28;20444;-82
2023/08/03 06:20:29;;;;;;;1.07;0.70;;;19.00;99.90;;;;;;5037540;28;20475;-83
2023/08/03 06:22:55;;;;;;;8.63;1.00;;;19.80;99.90;;;;;;5043160;28;21284;-82
2023/08/03 06:25:23;;;;;;;2.70;1.37;;;21.80;99.90;;;;;;5052731;28;20169;-83
2023/08/03 06:27:49;;;;;;;1.20;0.67;;;24.20;99.90;;;;;;5067974;28;20439;-81
2023/08/03 06:30:17;;;;;;;1.10;0.40;;;22.80;99.90;;;;;;5057421;28;20442;-83
2023/08/03 06:32:43;;;;;;;1.53;1.40;;;20.90;99.90;;;;;;5049646;28;20443;-85
2023/08/03 06:35:34;;;;;;;5.70;0.80;;;20.60;99.90;;;;;;5039455;28;20430;-81
2023/08/03 06:38:00;;;;;;;7.30;2.80;;;20.10;99.90;;;;;;5047714;28;20520;-85
2023/08/03 06:40:26;;;;;;;4.13;1.00;;;20.00;99.90;;;;;;5027303;28;21517;-81
2023/08/03 06:42:52;;;;;;;2.37;0.70;;;20.00;99.90;;;;;;5048221;28;20475;-80
2023/08/03 06:45:17;;;;;;;3.77;1.63;;;19.40;99.90;;;;;;5030367;28;20599;-81
2023/08/03 06:47:43;;;;;;;2.87;0.90;;;19.30;99.90;;;;;;5035180;28;20208;-81
2023/08/03 06:50:08;;;;;;;1.70;0.80;;;19.00;99.90;;;;;;5031645;28;20322;-80
2023/08/03 06:52:34;;;;;;;2.30;0.73;;;19.10;99.90;;;;;;5035416;28;20267;-82
2023/08/03 06:55:00;;;;;;;2.20;0.60;;;19.60;99.90;;;;;;5050983;28;20211;-81
2023/08/03 06:57:25;;;;;;;10.47;2.00;;;20.30;99.90;;;;;;5046070;28;20189;-80
2023/08/03 06:59:51;;;;;;;2.33;0.60;;;19.80;99.90;;;;;;5044863;28;20647;-80
2023/08/03 07:02:17;;;;;;;2.60;0.60;;;;;;;;;;5036091;28;20283;-80
2023/08/03 07:04:42;;;;;;;1.93;0.87;;;20.80;99.90;;;;;;5046627;28;20246;-81
2023/08/03 07:07:08;;;;;;;3.80;0.60;;;22.40;99.90;;;;;;5028865;28;20438;-80
2023/08/03 07:09:34;;;;;;;3.20;0.83;;;22.60;99.90;;;;;;5027128;28;20518;-81
2023/08/03 07:11:59;;;;;;;3.37;0.80;;;22.30;99.90;;;;;;5032607;28;20680;-80
2023/08/03 07:14:25;;;;;;;2.80;0.80;;;22.70;99.90;;;;;;5056345;28;20185;-80
2023/08/03 07:16:50;;;;;;;1.90;0.90;;;21.90;99.90;;;;;;5038136;28;20192;-81
2023/08/03 07:19:18;;;;;;;3.17;0.90;;;19.80;99.90;;;;;;5030630;28;20740;-81
2023/08/03 07:21:43;;;;;;;2.83;0.87;;;19.50;99.90;;;;;;5034858;28;20208;-80
2023/08/03 07:24:09;;;;;;;3.30;0.90;;;19.70;99.90;;;;;;5053504;28;21187;-78
2023/08/03 07:26:35;;;;;;;5.50;1.07;;;19.40;99.90;;;;;;5037743;28;20765;-81
2023/08/03 07:29:00;;;;;;;7.43;0.77;;;19.20;99.90;;;;;;5045947;28;20176;-82
2023/08/03 07:31:27;;;;;;;4.43;1.00;;;18.80;99.90;;;;;;5050426;28;20222;-81
2023/08/03 07:33:53;;;;;;;2.60;0.90;;;18.90;99.90;;;;;;5047124;28;20185;-80
2023/08/03 07:36:19;;;;;;;1.27;0.83;;;18.80;99.90;;;;;;5047177;28;20431;-80
2023/08/03 07:38:45;;;;;;;5.43;1.40;;;18.90;99.90;;;;;;5034983;28;20487;-79
2023/08/03 07:41:11;;;;;;;1.53;0.50;;;19.10;99.90;;;;;;5045883;28;20478;-83
2023/08/03 07:43:36;;;;;;;3.20;0.53;;;19.40;99.90;;;;;;5038884;28;20475;-83
2023/08/03 07:46:02;;;;;;;3.80;1.07;;;19.30;99.90;;;;;;5029860;28;20239;-79
2023/08/03 07:48:28;;;;;;;5.67;1.00;;;18.80;99.90;;;;;;5028769;28;20932;-82
2023/08/03 07:50:53;;;;;;;1.77;0.70;;;18.60;99.90;;;;;;5031431;28;20438;-79
2023/08/03 07:53:19;;;;;;;2.80;1.03;;;18.70;99.90;;;;;;5029937;28;20181;-78
2023/08/03 07:55:44;;;;;;;5.70;1.00;;;19.00;99.90;;;;;;5049622;28;20659;-80
2023/08/03 07:58:11;;;;;;;1.67;0.70;;;19.00;99.90;;;;;;5032747;28;20313;-79
2023/08/03 08:00:37;;;;;;;1.30;0.83;;;19.00;99.90;;;;;;5038543;28;21137;-80
2023/08/03 08:03:03;;;;;;;1.47;0.97;;;19.50;99.90;;;;;;5047129;28;20467;-80
2023/08/03 08:05:28;;;;;;;1.57;0.80;;;19.50;99.90;;;;;;5030519;28;20181;-78
2023/08/03 08:07:54;;;;;;;6.70;1.20;;;19.40;99.90;;;;;;5027978;28;20820;-80
2023/08/03 08:10:20;;;;;;;2.23;0.83;;;19.60;99.90;;;;;;5028940;28;20498;-81
2023/08/03 08:12:45;;;;;;;3.73;0.80;;;19.50;99.90;;;;;;5037144;28;20970;-81
2023/08/03 08:15:11;;;;;;;1.73;0.77;;;19.80;99.90;;;;;;5043140;28;20995;-79
2023/08/03 08:17:36;;;;;;;3.40;1.00;;;19.80;99.90;;;;;;5030622;28;20219;-79
2023/08/03 08:20:02;;;;;;;3.20;0.77;;;20.00;99.90;;;;;;5050042;28;20202;-79
2023/08/03 08:22:29;;;;;;;2.73;0.70;;;20.10;99.90;;;;;;5041619;28;20209;-81
2023/08/03 08:24:55;;;;;;;2.50;0.90;;;20.40;99.90;;;;;;5050560;28;20189;-78
2023/08/03 08:27:20;;;;;;;5.13;1.03;;;21.00;99.90;;;;;;5027689;28;20906;-80
2023/08/03 08:29:46;;;;;;;3.20;0.83;;;21.00;99.90;;;;;;5031726;28;20184;-79
2023/08/03 08:32:12;;;;;;;2.33;0.97;;;21.20;99.90;;;;;;5048129;28;20208;-82
2023/08/03 08:34:38;;;;;;;1.47;1.00;;;22.20;99.90;;;;;;5047142;28;20466;-81
2023/08/03 08:37:03;;;;;;;1.37;0.60;;;21.50;99.90;;;;;;5049072;28;20243;-79
2023/08/03 08:39:29;;;;;;;1.70;0.80;;;20.80;99.90;;;;;;5048609;28;20953;-80
2023/08/03 08:41:55;;;;;;;3.97;0.50;;;20.60;99.90;;;;;;5036021;28;20193;-80
2023/08/03 08:44:21;;;;;;;1.23;0.70;;;20.10;99.90;;;;;;5033026;28;20184;-79
2023/08/03 08:46:46;;;;;;;2.20;0.83;;;19.90;99.90;;;;;;5047243;28;20437;-81
2023/08/03 08:49:12;;;;;;;2.77;0.97;;;20.50;99.90;;;;;;5048974;28;20529;-80
2023/08/03 08:51:43;;;;;;;4.70;0.90;;;20.90;99.90;;;;;;5034764;28;20204;-82
2023/08/03 08:54:09;;;;;;;3.70;0.77;;;20.60;99.90;;;;;;5051548;28;20431;-80
2023/08/03 08:56:35;;;;;;;3.63;0.80;;;;;;;;;;5058365;28;21515;-80
2023/08/03 08:59:02;;;;;;;1.70;0.70;;;21.90;99.90;;;;;;5036080;28;20530;-81
2023/08/03 09:01:46;;;;;;;4.37;1.00;;;21.10;99.90;;;;;;5048889;28;20451;-80
2023/08/03 09:04:11;;;;;;;2.30;0.90;;;21.60;99.90;;;;;;5046374;28;20449;-81
2023/08/03 09:06:43;;;;;;;1.67;0.77;;;22.90;99.90;;;;;;5047481;28;20988;-81
2023/08/03 09:09:09;;;;;;;4.17;0.70;;;22.70;99.90;;;;;;5031397;28;20184;-81
2023/08/03 09:11:41;;;;;;;3.80;0.70;;;21.80;99.90;;;;;;5032742;28;20537;-80
2023/08/03 09:14:08;;;;;;;3.13;0.50;;;21.50;99.90;;;;;;5045890;28;20223;-80
2023/08/03 09:16:35;;;;;;;3.70;1.10;;;20.40;99.90;;;;;;5031670;28;20430;-81
2023/08/03 09:19:00;;;;;;;8.80;0.57;;;20.10;99.90;;;;;;5049363;28;20824;-84
2023/08/03 09:21:26;;;;;;;3.90;0.87;;;20.10;99.90;;;;;;5050069;28;20975;-80
2023/08/03 09:23:51;;;;;;;1.90;0.87;;;19.70;99.90;;;;;;5045761;28;20180;-80
2023/08/03 09:26:22;;;;;;;1.87;0.80;;;19.70;99.90;;;;;;5035469;28;20173;-80
2023/08/03 09:28:48;;;;;;;3.03;0.70;;;19.80;99.90;;;;;;5033803;28;20502;-81
2023/08/03 09:31:24;;;;;;;1.40;0.80;;;19.70;99.90;;;;;;5044562;28;20535;-79
2023/08/03 09:34:00;;;;;;;6.53;0.90;;;19.20;99.90;;;;;;5044202;28;20184;-82
2023/08/03 09:36:27;;;;;;;5.77;1.17;;;19.30;99.90;;;;;;5050969;28;20658;-81
2023/08/03 09:39:08;;;;;;;3.17;0.70;;;19.20;99.90;;;;;;5045453;28;20433;-82
2023/08/03 09:41:35;;;;;;;2.00;0.80;;;19.60;99.90;;;;;;5051005;28;20531;-82
2023/08/03 09:44:02;;;;;;;1.27;0.67;;;19.50;99.90;;;;;;5033527;28;20430;-81
2023/08/03 09:46:29;;;;;;;1.07;0.77;;;19.60;99.90;;;;;;5028296;28;20442;-80
2023/08/03 09:48:56;;;;;;;2.60;0.60;;;19.40;99.90;;;;;;5042504;28;20427;-82
2023/08/03 09:51:25;;;;;;;1.00;0.60;;;19.60;99.90;;;;;;5045522;28;20447;-81
2023/08/03 09:53:55;;;;;;;3.17;0.80;;;19.70;99.90;;;;;;5032114;28;20423;-81
2023/08/03 09:56:25;;;;;;;3.10;0.77;;;19.80;99.90;;;;;;5044473;28;20431;-82
2023/08/03 09:59:03;;;;;;;4.00;0.90;;;20.00;99.90;;;;;;5045914;28;20427;-82
2023/08/03 10:01:32;;;;;;;2.73;0.90;;;19.60;99.90;;;;;;5036218;28;21028;-82
2023/08/03 10:04:03;;;;;;;1.57;0.60;;;19.50;99.90;;;;;;5045383;28;20537;-82
2023/08/03 10:06:34;;;;;;;0.70;0.50;;;19.50;99.90;;;;;;5041777;28;20441;-80
2023/08/03 10:09:05;;;;;;;1.90;0.60;;;19.80;99.90;;;;;;5034511;28;20435;-81
2023/08/03 10:11:36;;;;;;;1.63;0.57;;;19.80;99.90;;;;;;5050469;28;20451;-85
2023/08/03 10:14:04;;;;;;;2.00;0.73;;;20.10;99.90;;;;;;5048624;28;20427;-81
2023/08/03 10:16:33;;;;;;;2.33;0.60;;;19.90;99.90;;;;;;5048678;28;20465;-79
2023/08/03 10:19:02;;;;;;;1.37;0.60;;;20.10;99.90;;;;;;5024579;28;20652;-81
2023/08/03 10:21:29;;;;;;;3.17;0.83;;;19.90;99.90;;;;;;5043432;28;20462;-84
2023/08/03 10:24:15;;;;;;;0.97;0.57;;;20.30;99.90;;;;;;5042968;28;20505;-82
2023/08/03 10:26:42;;;;;;;2.47;0.70;;;20.20;99.90;;;;;;5039334;28;20441;-86
2023/08/03 10:29:08;;;;;;;2.30;0.60;;;20.40;99.90;;;;;;5035399;28;20814;-83
2023/08/03 10:31:51;;;;;;;7.83;0.70;;;20.40;99.90;;;;;;5046299;28;20546;-84
2023/08/03 10:34:28;;;;;;;1.20;0.60;;;21.10;99.90;;;;;;5037765;28;20434;-81
2023/08/03 10:36:56;;;;;;;0.97;0.80;;;21.00;99.90;;;;;;5050578;28;20439;-83
2023/08/03 10:40:01;;;;;;;1.90;0.77;;;20.80;99.90;;;;;;5030983;28;20523;-83
2023/08/03 10:42:34;;;;;;;1.87;0.70;;;20.40;99.90;;;;;;4954120;28;20485;-82
2023/08/03 10:45:24;;;;;;;0.80;0.40;;;20.70;99.90;;;;;;4977384;28;20444;-82
2023/08/03 10:47:49;;;;;;;3.60;1.50;;;20.90;99.90;;;;;;5022295;28;20445;-80
2023/08/03 10:50:15;;;;;;;1.60;0.63;;;20.30;99.90;;;;;;5049624;28;20439;-80
2023/08/03 10:52:40;;;;;;;1.30;0.67;;;20.10;99.90;;;;;;5027980;28;20205;-81
2023/08/03 10:55:26;;;;;;;2.20;0.50;;;20.50;99.90;;;;;;5044830;28;20239;-83
2023/08/03 10:57:54;;;;;;;1.20;0.50;;;20.90;99.90;;;;;;5048449;28;20342;-81
2023/08/03 11:00:21;;;;;;;2.40;0.60;;;20.70;99.90;;;;;;5033441;28;21159;-82
2023/08/03 11:02:47;;;;;;;2.13;1.10;;;20.30;99.90;;;;;;5028631;28;20558;-85
2023/08/03 11:05:12;;;;;;;1.60;0.67;;;20.90;99.90;;;;;;5030019;28;20506;-81
2023/08/03 11:07:43;;;;;;;2.50;2.00;;;21.30;99.90;;;;;;5027110;28;20267;-82
2023/08/03 11:10:10;;;;;;;2.20;0.83;;;21.70;99.90;;;;;;5045926;28;20169;-79
2023/08/03 11:12:37;;;;;;;1.53;0.73;;;21.40;99.90;;;;;;5043372;28;20977;-81
2023/08/03 11:15:05;;;;;;;2.80;0.80;;;;;;;;;;5045475;28;20435;-81
2023/08/03 11:17:33;;;;;;;1.33;0.60;;;22.30;99.90;;;;;;5027586;28;21064;-81
2023/08/03 11:20:00;;;;;;;2.93;0.80;;;21.90;99.90;;;;;;5033794;28;21074;-80
2023/08/03 11:22:28;;;;;;;1.77;0.60;;;21.70;99.90;;;;;;5027549;28;20493;-81
2023/08/03 11:25:04;;;;;;;1.73;0.50;;;22.40;99.90;;;;;;5047254;28;20439;-80
2023/08/03 11:27:30;;;;;;;1.03;0.80;;;21.70;99.90;;;;;;5057491;28;21237;-84
2023/08/03 11:29:56;;;;;;;3.50;1.03;;;21.50;99.90;;;;;;5037493;28;21030;-82
2023/08/03 11:32:24;;;;;;;1.30;0.60;;;21.60;99.90;;;;;;5059599;28;20459;-80
2023/08/03 11:35:06;;;;;;;0.83;0.50;;;21.30;99.90;;;;;;5071221;28;20422;-81
2023/08/03 11:37:36;;;;;;;6.37;0.80;;;21.50;99.90;;;;;;5057137;28;20458;-80
2023/08/03 11:40:05;;;;;;;2.83;0.83;;;21.70;99.90;;;;;;5040212;28;20969;-81
2023/08/03 11:42:31;;;;;;;2.47;0.70;;;21.90;99.90;;;;;;5047026;28;20459;-80
2023/08/03 11:44:57;;;;;;;3.83;0.73;;;21.50;99.90;;;;;;5057269;28;20443;-81
2023/08/03 11:47:23;;;;;;;4.50;0.70;;;21.70;99.90;;;;;;5053948;28;20438;-84
2023/08/03 11:49:49;;;;;;;1.70;0.60;;;21.70;99.90;;;;;;5034611;28;20179;-82
2023/08/03 11:52:18;;;;;;;7.03;0.60;;;22.00;99.90;;;;;;5050046;28;20205;-81
2023/08/03 11:54:45;;;;;;;1.07;0.53;;;21.60;99.90;;;;;;5037308;28;20484;-84
2023/08/03 11:59:56;;;;;;;0.80;0.63;;;21.40;99.90;;;;;;5022161;28;20438;-80
2023/08/03 12:02:43;;;;;;;2.43;0.87;;;21.60;99.90;;;;;;5048957;28;20476;-79
2023/08/03 12:05:08;;;;;;;4.10;0.50;;;22.10;99.90;;;;;;5029503;28;20184;-80
2023/08/03 12:07:34;;;;;;;2.73;0.60;;;22.40;99.90;;;;;;5032374;28;20453;-82
2023/08/03 12:10:00;;;;;;;3.83;0.70;;;21.80;99.90;;;;;;5044599;28;20185;-81
2023/08/03 12:12:25;;;;;;;1.93;0.60;;;21.80;99.90;;;;;;5046208;28;20231;-80
2023/08/03 12:14:51;;;;;;;4.40;0.70;;;21.80;99.90;;;;;;5047905;28;21105;-79
2023/08/03 12:17:16;;;;;;;4.13;0.60;;;21.80;99.90;;;;;;5049044;28;20184;-81
2023/08/03 12:19:42;;;;;;;2.60;0.53;;;22.40;99.90;;;;;;5046187;28;20184;-81
2023/08/03 12:22:08;;;;;;;3.03;0.60;;;22.20;99.90;;;;;;5049637;28;20223;-81
2023/08/03 12:24:33;;;;;;;1.90;0.60;;;22.00;99.90;;;;;;5053270;28;20185;-80
2023/08/03 12:27:01;;;;;;;2.27;0.60;;;22.50;99.90;;;;;;5050737;28;20199;-81
2023/08/03 12:29:26;;;;;;;3.43;0.60;;;22.50;99.90;;;;;;5030981;28;20570;-81
2023/08/03 12:31:52;;;;;;;1.43;0.47;;;21.70;99.90;;;;;;5054928;28;20465;-79
2023/08/03 12:34:17;;;;;;;2.30;0.70;;;21.50;99.90;;;;;;5050215;28;20550;-80
2023/08/03 12:36:43;;;;;;;3.27;0.73;;;21.70;99.90;;;;;;5030171;28;20235;-81
2023/08/03 12:39:09;;;;;;;0.90;0.53;;;21.90;99.90;;;;;;5036208;28;20600;-82
2023/08/03 12:41:35;;;;;;;2.33;0.60;;;22.10;99.90;;;;;;5047868;28;20253;-83
2023/08/03 12:44:00;;;;;;;2.20;0.70;;;22.40;99.90;;;;;;5041295;28;20539;-85
2023/08/03 12:46:26;;;;;;;1.97;0.70;;;22.40;99.90;;;;;;5052198;28;20162;-81
2023/08/03 12:48:52;;;;;;;1.53;0.63;;;21.40;99.90;;;;;;5053057;28;20191;-79
2023/08/03 12:51:18;;;;;;;1.90;0.70;;;21.30;99.90;;;;;;5059796;28;20280;-80